The Hangar Logo

METARs in Plain English
Latest METAR information for EGVN - BRIZE NORTON

EGVN 200250Z 25006KT 3500 BR OVC003 09/09 Q1019 NOSIG

In plain english is....

This is a METAR report for EGVN - BRIZE NORTON .
The report was made 68 minutes ago, at 02:50 UTC.
The wind was blowing at a speed of 6 knots (6.9 miles per hour, 3.1 metres per second) from the West/Southwest (250°).
The visibility was 2.2 miles (3.5 kilometres).
Weather was Moderate Mist .
There were overcast at a height of 300 feet (91 metres).
The temperature was 9°C (48°F), a dew point of 9°C (48°F) and a relative humidity of 100.0%.
The altimeter setting (airfield QNH) was 1,019 hPa (30.09 inHg).
Other remarks NOSIG.

UK Mainland

Ireland

Channel Islands

France

Other



Enter
Tel: 07092 887559 - Fax: 07092 183262

Content copyright © 1999-2016 TheHangar.co.uk. All rights reserved.
Please send your questions, comments, or bug reports to the Webmaster.